Time,TemperatureF,DewpointF,PressureIn,WindDirection,WindDirectionDegrees,WindSpeedMPH,WindSpeedGustMPH,Humidity,HourlyPrecipIn,Conditions,Clouds,dailyrainin,SoftwareType,DateUTC
2013-04-10 00:02:00,72.0,61.0,29.84,SE,137,1.0,11.0,69,0.00,,,0.00,,2013-04-10 05:02:00,
2013-04-10 00:13:00,72.0,61.0,29.84,SSE,152,1.0,8.0,69,0.00,,,0.00,,2013-04-10 05:13:00,
2013-04-10 00:23:00,72.0,61.0,29.84,SSE,152,1.0,8.0,69,0.00,,,0.00,,2013-04-10 05:23:00,
2013-04-10 00:33:00,72.0,61.0,29.82,SE,127,2.0,10.0,69,0.00,,,0.00,,2013-04-10 05:33:00,
2013-04-10 00:42:00,72.0,61.0,29.82,SE,127,2.0,10.0,69,0.00,,,0.00,,2013-04-10 05:42:00,
2013-04-10 00:52:00,72.0,61.0,29.82,SE,144,3.0,11.0,69,0.00,,,0.00,,2013-04-10 05:52:00,
2013-04-10 01:03:00,72.0,61.0,29.82,SSE,148,2.0,10.0,69,0.00,,,0.00,,2013-04-10 06:03:00,
2013-04-10 01:12:00,72.0,61.0,29.83,South,190,3.0,12.0,69,0.00,,,0.00,,2013-04-10 06:12:00,
2013-04-10 01:22:00,72.0,61.0,29.83,South,190,3.0,12.0,69,0.00,,,0.00,,2013-04-10 06:22:00,
2013-04-10 01:32:00,72.0,61.0,29.84,SSW,209,3.0,11.0,69,0.00,,,0.00,,2013-04-10 06:32:00,
2013-04-10 01:42:00,72.0,61.0,29.84,SSW,209,3.0,11.0,69,0.00,,,0.00,,2013-04-10 06:42:00,
2013-04-10 01:52:00,72.0,61.0,29.84,SW,215,4.0,13.0,68,0.00,,,0.00,,2013-04-10 06:52:00,
2013-04-10 02:02:00,72.0,61.0,29.84,SSW,210,4.0,14.0,68,0.00,,,0.00,,2013-04-10 07:02:00,
2013-04-10 02:12:00,72.0,61.0,29.84,SSW,210,4.0,14.0,68,0.00,,,0.00,,2013-04-10 07:12:00,
2013-04-10 02:22:00,72.0,61.0,29.83,SW,214,3.0,12.0,69,0.00,,,0.00,,2013-04-10 07:22:00,
2013-04-10 02:32:00,72.0,61.0,29.83,SSW,200,2.0,11.0,69,0.00,,,0.00,,2013-04-10 07:32:00,
2013-04-10 02:42:00,72.0,61.0,29.83,SSW,200,2.0,11.0,69,0.00,,,0.00,,2013-04-10 07:42:00,
2013-04-10 02:52:00,72.0,62.0,29.83,SSW,205,2.0,12.0,70,0.00,,,0.00,,2013-04-10 07:52:00,
2013-04-10 03:02:00,72.0,62.0,29.82,SSW,206,2.0,11.0,71,0.00,,,0.00,,2013-04-10 08:02:00,
2013-04-10 03:12:00,72.0,62.0,29.82,SSW,206,2.0,11.0,71,0.00,,,0.00,,2013-04-10 08:12:00,
2013-04-10 03:22:00,71.0,62.0,29.81,SSW,205,2.0,8.0,72,0.00,,,0.00,,2013-04-10 08:22:00,
2013-04-10 03:32:00,72.0,62.0,29.81,SW,216,3.0,11.0,72,0.00,,,0.00,,2013-04-10 08:32:00,
2013-04-10 03:42:00,72.0,62.0,29.81,SW,216,3.0,11.0,72,0.00,,,0.00,,2013-04-10 08:42:00,
2013-04-10 03:52:00,72.0,62.0,29.81,SW,217,5.0,14.0,72,0.00,,,0.00,,2013-04-10 08:52:00,
2013-04-10 04:02:00,71.0,62.0,29.82,SW,230,4.0,13.0,73,0.00,,,0.00,,2013-04-10 09:02:00,
2013-04-10 04:12:00,71.0,62.0,29.82,SW,228,4.0,12.0,74,0.00,,,0.00,,2013-04-10 09:12:00,
2013-04-10 04:22:00,71.0,62.0,29.82,SW,228,4.0,12.0,74,0.00,,,0.00,,2013-04-10 09:22:00,
2013-04-10 04:32:00,71.0,62.0,29.83,SW,231,5.0,13.0,74,0.00,,,0.00,,2013-04-10 09:32:00,
2013-04-10 04:43:00,72.0,63.0,29.83,SW,229,7.0,19.0,74,0.00,,,0.00,,2013-04-10 09:43:00,
2013-04-10 04:52:00,72.0,63.0,29.83,SW,229,7.0,19.0,74,0.00,,,0.00,,2013-04-10 09:52:00,
2013-04-10 05:03:00,72.0,63.0,29.83,SW,236,6.0,16.0,74,0.00,,,0.00,,2013-04-10 10:03:00,
2013-04-10 05:12:00,72.0,63.0,29.83,SW,234,7.0,18.0,74,0.00,,,0.00,,2013-04-10 10:12:00,
2013-04-10 05:23:00,72.0,63.0,29.83,SW,234,7.0,18.0,74,0.00,,,0.00,,2013-04-10 10:23:00,
2013-04-10 05:33:00,72.0,63.0,29.83,SW,234,6.0,19.0,74,0.00,,,0.00,,2013-04-10 10:33:00,
2013-04-10 05:42:00,72.0,63.0,29.83,SW,234,6.0,19.0,74,0.00,,,0.00,,2013-04-10 10:42:00,
2013-04-10 05:52:00,71.0,63.0,29.83,SW,223,4.0,12.0,75,0.00,,,0.00,,2013-04-10 10:52:00,
2013-04-10 06:02:00,71.0,63.0,29.83,SW,217,4.0,14.0,75,0.00,,,0.00,,2013-04-10 11:02:00,
2013-04-10 06:12:00,71.0,63.0,29.83,SW,217,4.0,14.0,75,0.00,,,0.00,,2013-04-10 11:12:00,
2013-04-10 06:22:00,71.0,63.0,29.83,SW,225,3.0,10.0,75,0.00,,,0.00,,2013-04-10 11:22:00,
2013-04-10 06:32:00,70.0,62.0,29.84,SSW,203,2.0,8.0,76,0.00,,,0.00,,2013-04-10 11:32:00,
2013-04-10 06:42:00,70.0,62.0,29.84,SSW,203,2.0,8.0,76,0.00,,,0.00,,2013-04-10 11:42:00,
2013-04-10 06:52:00,70.0,62.0,29.85,SSW,194,0.0,7.0,76,0.00,,,0.00,,2013-04-10 11:52:00,
2013-04-10 07:03:00,70.0,63.0,29.86,SSW,212,0.0,5.0,78,0.00,,,0.00,,2013-04-10 12:03:00,
2013-04-10 07:12:00,70.0,63.0,29.86,SSW,212,0.0,5.0,78,0.00,,,0.00,,2013-04-10 12:12:00,
2013-04-10 07:22:00,70.0,63.0,29.86,South,179,1.0,7.0,78,0.00,,,0.00,,2013-04-10 12:22:00,
2013-04-10 07:33:00,70.0,62.0,29.86,South,189,2.0,12.0,76,0.00,,,0.00,,2013-04-10 12:33:00,
2013-04-10 07:42:00,70.0,62.0,29.86,South,189,2.0,12.0,76,0.00,,,0.00,,2013-04-10 12:42:00,
2013-04-10 07:52:00,71.0,63.0,29.86,SSE,161,1.0,10.0,75,0.00,,,0.00,,2013-04-10 12:52:00,
2013-04-10 08:02:00,72.0,62.0,29.87,South,177,2.0,10.0,72,0.00,,,0.00,,2013-04-10 13:02:00,
2013-04-10 08:12:00,72.0,62.0,29.87,South,177,2.0,10.0,72,0.00,,,0.00,,2013-04-10 13:12:00,
2013-04-10 08:23:00,72.0,62.0,29.87,SSW,196,3.0,13.0,70,0.00,,,0.00,,2013-04-10 13:23:00,
2013-04-10 08:32:00,73.0,62.0,29.87,South,181,2.0,10.0,68,0.00,,,0.00,,2013-04-10 13:32:00,
2013-04-10 08:42:00,73.0,62.0,29.87,South,181,2.0,10.0,68,0.00,,,0.00,,2013-04-10 13:42:00,
2013-04-10 08:52:00,73.0,61.0,29.87,SSW,204,4.0,14.0,66,0.00,,,0.00,,2013-04-10 13:52:00,
2013-04-10 09:02:00,74.0,61.0,29.87,SSE,154,2.0,10.0,65,0.00,,,0.00,,2013-04-10 14:02:00,
2013-04-10 09:12:00,74.0,61.0,29.87,SSE,154,2.0,10.0,65,0.00,,,0.00,,2013-04-10 14:12:00,
2013-04-10 09:22:00,73.0,61.0,29.88,South,173,2.0,11.0,66,0.00,,,0.00,,2013-04-10 14:22:00,
2013-04-10 09:32:00,73.0,61.0,29.88,South,172,2.0,12.0,67,0.00,,,0.00,,2013-04-10 14:32:00,
2013-04-10 09:42:00,73.0,61.0,29.89,SSE,162,2.0,11.0,67,0.00,,,0.00,,2013-04-10 14:42:00,
2013-04-10 09:52:00,73.0,61.0,29.89,SSE,162,2.0,11.0,67,0.00,,,0.00,,2013-04-10 14:52:00,
2013-04-10 10:02:00,73.0,61.0,29.89,SSE,168,1.0,8.0,67,0.00,,,0.00,,2013-04-10 15:02:00,
2013-04-10 10:12:00,73.0,61.0,29.89,SSE,168,1.0,8.0,67,0.00,,,0.00,,2013-04-10 15:12:00,
2013-04-10 10:22:00,73.0,61.0,29.89,SE,140,1.0,7.0,66,0.00,,,0.00,,2013-04-10 15:22:00,
2013-04-10 10:32:00,74.0,61.0,29.89,SSE,154,2.0,8.0,65,0.00,,,0.00,,2013-04-10 15:32:00,
2013-04-10 10:42:00,74.0,61.0,29.89,SSE,154,2.0,8.0,65,0.00,,,0.00,,2013-04-10 15:42:00,
2013-04-10 10:52:00,74.0,61.0,29.89,South,173,2.0,11.0,65,0.00,,,0.00,,2013-04-10 15:52:00,
2013-04-10 11:03:00,74.0,61.0,29.90,SSE,161,2.0,10.0,64,0.00,,,0.00,,2013-04-10 16:03:00,
2013-04-10 11:13:00,74.0,61.0,29.90,SSE,161,2.0,10.0,64,0.00,,,0.00,,2013-04-10 16:13:00,
2013-04-10 11:23:00,75.0,62.0,29.90,South,175,3.0,8.0,63,0.00,,,0.00,,2013-04-10 16:23:00,
2013-04-10 11:33:00,76.0,63.0,29.89,South,175,2.0,10.0,64,0.00,,,0.00,,2013-04-10 16:33:00,
2013-04-10 11:43:00,76.0,63.0,29.89,South,175,2.0,10.0,64,0.00,,,0.00,,2013-04-10 16:43:00,
2013-04-10 11:52:00,77.0,62.0,29.89,SW,221,6.0,14.0,60,0.00,,,0.00,,2013-04-10 16:52:00,
2013-04-10 12:02:00,77.0,62.0,29.89,SW,218,7.0,22.0,60,0.00,,,0.00,,2013-04-10 17:02:00,
2013-04-10 12:12:00,77.0,63.0,29.89,South,190,6.0,18.0,61,0.00,,,0.00,,2013-04-10 17:12:00,
2013-04-10 12:22:00,77.0,63.0,29.89,South,190,6.0,18.0,61,0.00,,,0.00,,2013-04-10 17:22:00,
2013-04-10 12:33:00,77.0,62.0,29.88,SSW,196,8.0,24.0,60,0.00,,,0.00,,2013-04-10 17:33:00,
2013-04-10 12:42:00,77.0,62.0,29.88,SSW,196,8.0,24.0,60,0.00,,,0.00,,2013-04-10 17:42:00,
2013-04-10 12:52:00,78.0,62.0,29.86,SSW,199,4.0,16.0,58,0.00,,,0.00,,2013-04-10 17:52:00,
2013-04-10 13:02:00,79.0,62.0,29.86,SSW,211,4.0,14.0,57,0.00,,,0.00,,2013-04-10 18:02:00,
2013-04-10 13:12:00,79.0,62.0,29.86,SSW,211,4.0,14.0,57,0.00,,,0.00,,2013-04-10 18:12:00,
2013-04-10 13:23:00,80.0,62.0,29.85,South,170,4.0,14.0,55,0.00,,,0.00,,2013-04-10 18:23:00,
2013-04-10 13:33:00,81.0,62.0,29.85,SSE,153,3.0,13.0,53,0.00,,,0.00,,2013-04-10 18:33:00,
2013-04-10 13:42:00,81.0,62.0,29.85,SSE,153,3.0,13.0,53,0.00,,,0.00,,2013-04-10 18:42:00,
2013-04-10 13:52:00,81.0,62.0,29.84,SW,224,4.0,17.0,52,0.00,,,0.00,,2013-04-10 18:52:00,
2013-04-10 14:03:00,82.0,61.0,29.84,SW,219,6.0,19.0,49,0.00,,,0.00,,2013-04-10 19:03:00,
2013-04-10 14:12:00,82.0,61.0,29.84,SW,219,6.0,19.0,49,0.00,,,0.00,,2013-04-10 19:12:00,
2013-04-10 14:22:00,81.0,61.0,29.83,SSE,155,6.0,18.0,51,0.00,,,0.00,,2013-04-10 19:22:00,
2013-04-10 14:33:00,82.0,61.0,29.81,South,173,6.0,19.0,49,0.00,,,0.00,,2013-04-10 19:33:00,
2013-04-10 14:42:00,82.0,61.0,29.81,South,173,6.0,19.0,49,0.00,,,0.00,,2013-04-10 19:42:00,
2013-04-10 14:52:00,82.0,61.0,29.81,South,185,4.0,17.0,49,0.00,,,0.00,,2013-04-10 19:52:00,
2013-04-10 15:03:00,82.0,60.0,29.80,SSE,151,6.0,19.0,48,0.00,,,0.00,,2013-04-10 20:03:00,
2013-04-10 15:12:00,82.0,60.0,29.80,SSE,159,6.0,17.0,48,0.00,,,0.00,,2013-04-10 20:12:00,
2013-04-10 15:23:00,82.0,60.0,29.80,SSE,159,6.0,17.0,48,0.00,,,0.00,,2013-04-10 20:23:00,
2013-04-10 15:33:00,82.0,60.0,29.79,South,191,6.0,16.0,48,0.00,,,0.00,,2013-04-10 20:33:00,
2013-04-10 15:42:00,83.0,60.0,29.78,SW,223,6.0,18.0,46,0.00,,,0.00,,2013-04-10 20:42:00,
2013-04-10 15:52:00,83.0,60.0,29.78,SW,223,6.0,18.0,46,0.00,,,0.00,,2013-04-10 20:52:00,
2013-04-10 16:02:00,83.0,60.0,29.78,SW,214,6.0,18.0,46,0.00,,,0.00,,2013-04-10 21:02:00,
2013-04-10 16:12:00,83.0,59.0,29.76,SSW,206,5.0,19.0,45,0.00,,,0.00,,2013-04-10 21:12:00,
2013-04-10 16:22:00,83.0,59.0,29.76,SSW,206,5.0,19.0,45,0.00,,,0.00,,2013-04-10 21:22:00,
2013-04-10 16:32:00,82.0,60.0,29.76,South,185,5.0,15.0,47,0.00,,,0.00,,2013-04-10 21:32:00,
2013-04-10 16:42:00,82.0,60.0,29.76,South,185,5.0,15.0,47,0.00,,,0.00,,2013-04-10 21:42:00,
2013-04-10 16:53:00,83.0,59.0,29.74,SW,222,6.0,18.0,45,0.00,,,0.00,,2013-04-10 21:53:00,
2013-04-10 17:03:00,83.0,60.0,29.74,South,183,5.0,18.0,46,0.00,,,0.00,,2013-04-10 22:03:00,
2013-04-10 17:12:00,83.0,59.0,29.74,SW,216,6.0,18.0,45,0.00,,,0.00,,2013-04-10 22:12:00,
2013-04-10 17:23:00,83.0,59.0,29.74,SW,216,6.0,18.0,45,0.00,,,0.00,,2013-04-10 22:23:00,
2013-04-10 17:33:00,83.0,60.0,29.73,SW,223,3.0,11.0,46,0.00,,,0.00,,2013-04-10 22:33:00,
2013-04-10 17:42:00,83.0,60.0,29.73,SW,223,3.0,11.0,46,0.00,,,0.00,,2013-04-10 22:42:00,
2013-04-10 17:52:00,83.0,60.0,29.72,South,182,5.0,13.0,46,0.00,,,0.00,,2013-04-10 22:52:00,
2013-04-10 18:02:00,82.0,59.0,29.71,SSE,153,6.0,16.0,46,0.00,,,0.00,,2013-04-10 23:02:00,
2013-04-10 18:12:00,82.0,59.0,29.71,South,185,2.0,14.0,46,0.00,,,0.00,,2013-04-10 23:12:00,
2013-04-10 18:22:00,82.0,59.0,29.71,South,185,2.0,14.0,46,0.00,,,0.00,,2013-04-10 23:22:00,
2013-04-10 18:33:00,82.0,59.0,29.68,SSW,194,2.0,14.0,46,0.00,,,0.00,,2013-04-10 23:33:00,
2013-04-10 18:42:00,82.0,59.0,29.68,SSW,194,2.0,14.0,46,0.00,,,0.00,,2013-04-10 23:42:00,
2013-04-10 18:52:00,82.0,59.0,29.68,SSW,194,2.0,14.0,46,0.00,,,0.00,,2013-04-10 23:52:00,
2013-04-10 19:02:00,82.0,59.0,29.67,SSW,194,2.0,14.0,46,0.00,,,0.00,,2013-04-11 00:02:00,
2013-04-10 19:12:00,82.0,59.0,29.67,SSW,194,2.0,14.0,46,0.00,,,0.00,,2013-04-11 00:12:00,
2013-04-10 19:22:00,82.0,59.0,29.67,SSW,194,2.0,14.0,46,0.00,,,0.00,,2013-04-11 00:22:00,
2013-04-10 19:32:00,80.0,57.0,29.67,SSW,194,2.0,14.0,46,0.00,,,0.00,,2013-04-11 00:32:00,
2013-04-10 19:42:00,79.0,58.0,29.65,ESE,123,1.0,6.0,48,0.00,,,0.00,,2013-04-11 00:42:00,
2013-04-10 19:53:00,79.0,58.0,29.65,ESE,123,1.0,6.0,48,0.00,,,0.00,,2013-04-11 00:53:00,
2013-04-10 20:02:00,79.0,58.0,29.66,SSW,193,1.0,11.0,48,0.00,,,0.00,,2013-04-11 01:02:00,
2013-04-10 20:12:00,79.0,58.0,29.65,South,169,1.0,7.0,48,0.00,,,0.00,,2013-04-11 01:12:00,
2013-04-10 20:22:00,79.0,58.0,29.65,South,169,1.0,7.0,48,0.00,,,0.00,,2013-04-11 01:22:00,
2013-04-10 20:32:00,78.0,57.0,29.65,SE,135,2.0,8.0,48,0.00,,,0.00,,2013-04-11 01:32:00,
2013-04-10 20:42:00,78.0,57.0,29.65,SE,141,1.0,6.0,49,0.00,,,0.00,,2013-04-11 01:42:00,
2013-04-10 20:52:00,78.0,57.0,29.65,SE,141,1.0,6.0,49,0.00,,,0.00,,2013-04-11 01:52:00,
2013-04-10 21:02:00,78.0,58.0,29.65,SE,125,1.0,5.0,50,0.00,,,0.00,,2013-04-11 02:02:00,
2013-04-10 21:12:00,78.0,58.0,29.66,SE,128,1.0,5.0,51,0.00,,,0.00,,2013-04-11 02:12:00,
2013-04-10 21:22:00,78.0,58.0,29.66,SE,128,1.0,5.0,51,0.00,,,0.00,,2013-04-11 02:22:00,
2013-04-10 21:32:00,77.0,57.0,29.68,South,181,1.0,6.0,51,0.00,,,0.00,,2013-04-11 02:32:00,
2013-04-10 21:42:00,77.0,57.0,29.68,South,181,1.0,6.0,51,0.00,,,0.00,,2013-04-11 02:42:00,
2013-04-10 21:52:00,77.0,58.0,29.68,SE,144,0.0,6.0,52,0.00,,,0.00,,2013-04-11 02:52:00,
2013-04-10 22:02:00,76.0,58.0,29.67,SSE,150,0.0,3.0,53,0.00,,,0.00,,2013-04-11 03:02:00,
2013-04-10 22:12:00,76.0,58.0,29.67,SE,132,1.0,4.0,53,0.00,,,0.00,,2013-04-11 03:12:00,
2013-04-10 22:22:00,76.0,58.0,29.67,SE,132,1.0,4.0,53,0.00,,,0.00,,2013-04-11 03:22:00,
2013-04-10 22:33:00,76.0,59.0,29.67,SE,128,0.0,3.0,55,0.00,,,0.00,,2013-04-11 03:33:00,
2013-04-10 22:43:00,76.0,58.0,29.67,ESE,119,1.0,5.0,54,0.00,,,0.00,,2013-04-11 03:43:00,
2013-04-10 22:53:00,76.0,58.0,29.67,ESE,119,1.0,5.0,54,0.00,,,0.00,,2013-04-11 03:53:00,
2013-04-10 23:03:00,76.0,57.0,29.65,SE,137,4.0,13.0,52,0.00,,,0.00,,2013-04-11 04:03:00,
2013-04-10 23:12:00,77.0,57.0,29.65,SE,141,3.0,14.0,50,0.00,,,0.00,,2013-04-11 04:12:00,
2013-04-10 23:22:00,77.0,57.0,29.65,SE,141,3.0,14.0,50,0.00,,,0.00,,2013-04-11 04:22:00,
2013-04-10 23:33:00,77.0,56.0,29.65,SSE,149,3.0,13.0,49,0.00,,,0.00,,2013-04-11 04:33:00,
2013-04-10 23:42:00,77.0,56.0,29.65,SSE,149,3.0,13.0,49,0.00,,,0.00,,2013-04-11 04:42:00,
2013-04-10 23:52:00,77.0,56.0,29.65,South,171,2.0,9.0,49,0.00,,,0.00,,2013-04-11 04:52:00,